createdAt,value
2023-03-19T00:01:24.601Z,39.31
2023-03-19T00:04:28.614Z,39.27
2023-03-19T00:07:31.716Z,39.35
2023-03-19T00:10:38.562Z,39.34
2023-03-19T00:13:41.567Z,39.38
2023-03-19T00:16:44.709Z,39.72
2023-03-19T00:19:47.723Z,39.78
2023-03-19T00:22:50.780Z,39.89
2023-03-19T00:25:54.897Z,39.83
2023-03-19T00:28:58.739Z,39.91
2023-03-19T00:32:02.419Z,40.00
2023-03-19T00:35:06.629Z,40.36
2023-03-19T00:38:09.933Z,40.54
2023-03-19T00:41:13.892Z,40.65
2023-03-19T00:44:18.981Z,40.73
2023-03-19T00:47:22.593Z,40.82
2023-03-19T00:50:26.430Z,40.84
2023-03-19T00:53:29.467Z,40.89
2023-03-19T00:56:32.455Z,41.01
2023-03-19T00:59:35.451Z,41.26
2023-03-19T01:02:38.737Z,41.43
2023-03-19T01:05:42.450Z,41.48
2023-03-19T01:08:45.644Z,41.46
2023-03-19T01:11:48.633Z,41.43
2023-03-19T01:14:51.798Z,41.59
2023-03-19T01:17:54.935Z,41.73
2023-03-19T01:20:58.016Z,41.76
2023-03-19T01:24:01.331Z,41.77
2023-03-19T01:27:05.073Z,41.67
2023-03-19T01:30:10.614Z,41.77
2023-03-19T01:33:31.990Z,41.68
2023-03-19T01:36:38.362Z,41.79
2023-03-19T01:39:43.007Z,41.86
2023-03-19T01:42:57.008Z,41.94
2023-03-19T01:46:31.238Z,42.02
2023-03-19T01:49:56.549Z,41.97
2023-03-19T01:53:01.297Z,41.92
2023-03-19T01:56:34.860Z,42.10
2023-03-19T02:00:02.055Z,42.19
2023-03-19T02:03:20.310Z,42.24
2023-03-19T02:06:31.098Z,42.35
2023-03-19T02:09:34.672Z,42.35
2023-03-19T02:12:38.439Z,42.25
2023-03-19T02:15:42.143Z,42.23
2023-03-19T02:18:45.428Z,42.30
2023-03-19T02:21:49.190Z,42.52
2023-03-19T02:25:06.685Z,42.69
2023-03-19T02:28:11.332Z,42.70
2023-03-19T02:31:16.347Z,42.83
2023-03-19T02:34:19.440Z,42.87
2023-03-19T02:37:32.891Z,42.96
2023-03-19T02:40:41.299Z,43.09
2023-03-19T02:43:44.361Z,43.07
2023-03-19T02:46:47.495Z,43.09
2023-03-19T02:49:50.576Z,43.08
2023-03-19T02:52:54.060Z,43.09
2023-03-19T02:55:57.960Z,43.17
2023-03-19T02:59:01.410Z,43.17
2023-03-19T03:02:05.979Z,43.25
2023-03-19T03:05:09.360Z,43.25
2023-03-19T03:08:13.378Z,43.32
2023-03-19T03:11:16.336Z,43.38
2023-03-19T03:14:19.451Z,43.39
2023-03-19T03:17:22.711Z,43.41
2023-03-19T03:20:26.009Z,43.45
2023-03-19T03:23:29.125Z,43.53
2023-03-19T03:26:32.501Z,43.65
2023-03-19T03:29:35.605Z,43.57
2023-03-19T03:32:39.945Z,43.62
2023-03-19T03:35:43.241Z,43.68
2023-03-19T03:38:46.282Z,43.75
2023-03-19T03:41:49.590Z,43.78
2023-03-19T03:44:53.075Z,43.90
2023-03-19T03:47:56.377Z,43.96
2023-03-19T03:50:59.488Z,44.05
2023-03-19T03:54:03.964Z,43.96
2023-03-19T03:57:08.113Z,44.00
2023-03-19T04:00:12.614Z,44.12
2023-03-19T04:03:20.020Z,44.22
2023-03-19T04:06:25.064Z,44.26
2023-03-19T04:09:49.313Z,44.32
2023-03-19T04:12:53.755Z,44.35
2023-03-19T04:15:56.825Z,44.42
2023-03-19T04:19:00.245Z,44.54
2023-03-19T04:22:03.664Z,44.60
2023-03-19T04:25:08.428Z,44.74
2023-03-19T04:28:11.849Z,44.88
2023-03-19T04:31:15.509Z,44.92
2023-03-19T04:34:20.027Z,45.12
2023-03-19T04:37:23.089Z,45.15
2023-03-19T04:40:26.681Z,45.25
2023-03-19T04:43:30.182Z,45.21
2023-03-19T04:46:34.200Z,45.45
2023-03-19T04:49:38.225Z,45.48
2023-03-19T04:52:41.747Z,45.63
2023-03-19T04:55:44.777Z,45.72
2023-03-19T04:58:53.714Z,45.77
2023-03-19T05:01:57.075Z,45.88
2023-03-19T05:05:01.282Z,45.89
2023-03-19T05:08:04.639Z,45.94
2023-03-19T05:11:08.061Z,46.09
2023-03-19T05:14:22.169Z,46.13
2023-03-19T05:17:43.600Z,46.23
2023-03-19T05:20:51.087Z,46.38
2023-03-19T05:23:57.268Z,46.42
2023-03-19T05:27:01.104Z,46.60
2023-03-19T05:30:13.248Z,46.61
2023-03-19T05:33:28.492Z,46.71
2023-03-19T05:36:31.535Z,46.78
2023-03-19T05:39:41.829Z,46.77
2023-03-19T05:42:45.668Z,46.73
2023-03-19T05:45:53.009Z,46.64
2023-03-19T05:48:59.004Z,46.60
2023-03-19T05:52:02.211Z,46.47
2023-03-19T05:55:06.879Z,46.36
2023-03-19T05:58:19.969Z,46.15
2023-03-19T06:01:23.361Z,46.21
2023-03-19T06:04:27.586Z,46.15
2023-03-19T06:07:30.872Z,46.19
2023-03-19T06:10:37.283Z,46.12
2023-03-19T06:13:43.880Z,46.08
2023-03-19T06:16:51.518Z,46.06
2023-03-19T06:19:55.215Z,46.15
2023-03-19T06:22:58.328Z,46.17
2023-03-19T06:26:01.435Z,46.24
2023-03-19T06:29:07.711Z,46.20
2023-03-19T06:32:10.969Z,46.22
2023-03-19T06:35:17.558Z,46.27
2023-03-19T06:38:23.769Z,49.44
2023-03-19T06:41:27.393Z,47.95
2023-03-19T06:44:34.220Z,47.29
2023-03-19T06:47:37.328Z,46.92
2023-03-19T06:50:40.536Z,46.92
2023-03-19T06:53:43.602Z,46.84
2023-03-19T06:56:47.083Z,46.76
2023-03-19T06:59:57.815Z,46.70
2023-03-19T07:03:00.849Z,46.62
2023-03-19T07:06:04.049Z,46.61
2023-03-19T07:09:07.160Z,46.45
2023-03-19T07:12:10.546Z,46.27
2023-03-19T07:15:13.825Z,46.27
2023-03-19T07:18:16.798Z,46.22
2023-03-19T07:21:19.809Z,46.02
2023-03-19T07:24:22.847Z,45.80
2023-03-19T07:27:25.880Z,45.86
2023-03-19T07:30:28.938Z,45.80
2023-03-19T07:33:31.901Z,45.82
2023-03-19T07:36:34.931Z,45.81
2023-03-19T07:39:37.944Z,45.75
2023-03-19T07:42:41.611Z,45.72
2023-03-19T07:45:45.617Z,45.64
2023-03-19T07:48:48.580Z,45.55
2023-03-19T07:51:51.821Z,45.57
2023-03-19T07:54:54.910Z,45.48
2023-03-19T07:57:57.935Z,45.35
2023-03-19T08:01:01.161Z,45.34
2023-03-19T08:04:04.227Z,45.36
2023-03-19T08:07:08.712Z,45.08
2023-03-19T08:10:18.710Z,44.95
2023-03-19T08:13:25.446Z,45.00
2023-03-19T08:16:28.665Z,44.86
2023-03-19T08:19:32.481Z,44.81
2023-03-19T08:22:36.838Z,44.63
2023-03-19T08:25:39.916Z,44.38
2023-03-19T08:28:42.885Z,44.51
2023-03-19T08:31:46.402Z,44.61
2023-03-19T08:34:49.863Z,44.46
2023-03-19T08:37:53.708Z,44.39
2023-03-19T08:41:02.160Z,44.40
2023-03-19T08:44:05.248Z,44.27
2023-03-19T08:47:08.538Z,44.08
2023-03-19T08:50:12.244Z,43.87
2023-03-19T08:53:15.551Z,43.71
2023-03-19T08:56:18.886Z,43.45
2023-03-19T08:59:22.015Z,43.32
2023-03-19T09:02:27.486Z,43.20
2023-03-19T09:05:30.576Z,43.05
2023-03-19T09:08:46.842Z,42.69
2023-03-19T09:11:50.384Z,42.39
2023-03-19T09:14:56.464Z,42.12
2023-03-19T09:17:59.561Z,41.90
2023-03-19T09:21:03.294Z,41.75
2023-03-19T09:24:09.729Z,41.39
2023-03-19T09:27:12.835Z,41.01
2023-03-19T09:30:16.084Z,40.86
2023-03-19T09:33:20.788Z,40.85
2023-03-19T09:39:42.688Z,40.63
2023-03-19T09:43:19.653Z,40.52
2023-03-19T09:47:11.265Z,40.18
2023-03-19T09:50:20.577Z,39.68
2023-03-19T09:53:41.958Z,39.60
2023-03-19T09:56:48.152Z,39.38
2023-03-19T09:59:53.214Z,39.43
2023-03-19T10:03:12.476Z,39.28
2023-03-19T10:06:33.851Z,39.21
2023-03-19T10:10:08.930Z,39.06
2023-03-19T10:13:39.632Z,38.84
2023-03-19T10:16:46.778Z,38.70
2023-03-19T10:20:03.122Z,38.55
2023-03-19T10:23:08.558Z,38.60
2023-03-19T10:26:17.743Z,38.67
2023-03-19T10:29:23.597Z,38.72
2023-03-19T10:32:33.984Z,38.64
2023-03-19T10:35:44.445Z,38.53
2023-03-19T10:38:47.534Z,38.60
2023-03-19T10:42:08.486Z,39.03
2023-03-19T10:45:35.424Z,38.45
2023-03-19T10:48:44.535Z,38.50
2023-03-19T10:51:48.949Z,38.35
2023-03-19T10:54:57.146Z,37.99
2023-03-19T10:58:16.741Z,37.74
2023-03-19T11:01:19.733Z,37.62
2023-03-19T11:04:24.318Z,37.39
2023-03-19T11:07:37.093Z,37.31
2023-03-19T11:10:47.074Z,37.04
2023-03-19T11:13:50.226Z,36.71
2023-03-19T11:17:21.994Z,36.56
2023-03-19T11:20:34.053Z,36.48
2023-03-19T11:23:43.376Z,36.26
2023-03-19T11:26:56.048Z,37.89
2023-03-19T11:29:59.198Z,36.75
2023-03-19T11:33:08.258Z,36.60
2023-03-19T11:44:26.203Z,35.61
2023-03-19T11:48:13.041Z,35.49
2023-03-19T11:55:23.097Z,35.29
2023-03-19T11:58:52.108Z,35.28
2023-03-19T12:02:34.084Z,34.99
2023-03-19T12:06:11.817Z,34.81
2023-03-19T12:09:47.637Z,35.01
2023-03-19T12:13:24.236Z,34.92
2023-03-19T12:17:19.276Z,34.56
2023-03-19T12:20:35.841Z,34.55
2023-03-19T12:24:17.189Z,34.48
2023-03-19T12:27:23.030Z,34.18
2023-03-19T12:30:45.374Z,34.20
2023-03-19T12:33:54.527Z,34.35
2023-03-19T12:37:27.264Z,34.16
2023-03-19T12:40:34.469Z,34.07
2023-03-19T12:44:09.183Z,33.91
2023-03-19T12:51:05.717Z,34.19
2023-03-19T12:54:17.622Z,34.29
2023-03-19T13:01:01.366Z,34.24
2023-03-19T13:04:32.834Z,33.87
2023-03-19T13:08:03.317Z,34.10
2023-03-19T13:21:46.817Z,34.11
2023-03-19T13:24:59.376Z,35.63
2023-03-19T13:28:01.180Z,35.24
2023-03-19T13:31:07.001Z,35.01
2023-03-19T13:34:29.843Z,34.79
2023-03-19T13:38:12.375Z,34.91
2023-03-19T13:41:32.967Z,35.39
2023-03-19T13:45:27.792Z,35.07
2023-03-19T13:48:45.173Z,34.94
2023-03-19T13:51:48.527Z,34.81
2023-03-19T13:54:57.217Z,34.81
2023-03-19T13:58:37.261Z,34.83
2023-03-19T14:01:44.818Z,34.86
2023-03-19T14:09:04.127Z,34.93
2023-03-19T14:12:47.100Z,35.17
2023-03-19T14:16:36.836Z,35.00
2023-03-19T14:19:42.328Z,35.14
2023-03-19T14:23:15.238Z,35.18
2023-03-19T14:26:24.609Z,35.37
2023-03-19T14:29:29.368Z,35.32
2023-03-19T14:32:40.152Z,35.17
2023-03-19T14:35:46.058Z,35.38
2023-03-19T14:38:55.096Z,35.21
2023-03-19T14:42:24.976Z,35.22
2023-03-19T14:45:42.836Z,35.37
2023-03-19T14:49:18.173Z,35.41
2023-03-19T14:52:36.055Z,35.49
2023-03-19T14:55:38.101Z,35.52
2023-03-19T14:58:56.298Z,35.72
2023-03-19T15:01:58.014Z,35.45
2023-03-19T15:05:02.079Z,35.85
2023-03-19T15:08:10.897Z,35.72
2023-03-19T15:12:08.774Z,35.96
2023-03-19T15:15:22.608Z,35.97
2023-03-19T15:18:26.384Z,35.87
2023-03-19T15:21:31.248Z,36.12
2023-03-19T15:24:34.034Z,35.90
2023-03-19T15:27:36.322Z,35.88
2023-03-19T15:30:52.339Z,36.02
2023-03-19T15:33:59.240Z,36.17
2023-03-19T15:37:04.989Z,36.14
2023-03-19T15:40:11.091Z,36.23
2023-03-19T15:43:13.399Z,36.23
2023-03-19T15:46:23.035Z,36.32
2023-03-19T15:49:31.217Z,36.36
2023-03-19T15:52:37.785Z,36.47
2023-03-19T15:55:39.972Z,36.39
2023-03-19T15:58:44.421Z,36.54
2023-03-19T16:01:46.610Z,36.56
2023-03-19T16:05:18.315Z,36.64
2023-03-19T16:08:19.259Z,36.64
2023-03-19T16:11:44.537Z,36.61
2023-03-19T16:14:46.372Z,36.67
2023-03-19T16:17:51.299Z,37.23
2023-03-19T16:21:00.476Z,37.09
2023-03-19T16:24:02.703Z,37.06
2023-03-19T16:27:10.924Z,37.56
2023-03-19T16:30:21.907Z,37.79
2023-03-19T16:33:26.465Z,37.86
2023-03-19T16:36:31.303Z,38.19
2023-03-19T16:39:36.365Z,38.58
2023-03-19T16:42:38.628Z,38.67
2023-03-19T16:46:13.437Z,38.88
2023-03-19T16:49:15.464Z,39.02
2023-03-19T16:52:22.937Z,39.27
2023-03-19T16:55:33.677Z,39.30
2023-03-19T16:58:41.627Z,39.66
2023-03-19T17:01:43.363Z,39.62
2023-03-19T17:04:45.520Z,39.83
2023-03-19T17:07:48.312Z,39.95
2023-03-19T17:10:52.838Z,40.17
2023-03-19T17:13:58.421Z,40.24
2023-03-19T17:17:00.535Z,40.45
2023-03-19T17:20:02.359Z,40.67
2023-03-19T17:23:13.211Z,40.73
2023-03-19T17:26:21.332Z,40.85
2023-03-19T17:29:24.822Z,41.06
2023-03-19T17:32:28.304Z,41.21
2023-03-19T17:35:33.650Z,41.33
2023-03-19T17:38:35.425Z,41.53
2023-03-19T17:41:37.278Z,41.69
2023-03-19T17:44:45.241Z,41.74
2023-03-19T17:47:55.651Z,41.89
2023-03-19T17:51:01.312Z,42.08
2023-03-19T17:54:03.183Z,42.25
2023-03-19T17:57:04.938Z,42.25
2023-03-19T18:00:07.127Z,42.31
2023-03-19T18:03:17.065Z,42.42
2023-03-19T18:06:21.830Z,42.73
2023-03-19T18:09:32.168Z,42.75
2023-03-19T18:12:33.918Z,42.83
2023-03-19T18:15:37.391Z,44.31
2023-03-19T18:18:39.065Z,44.03
2023-03-19T18:21:40.771Z,43.58
2023-03-19T18:24:43.815Z,43.41
2023-03-19T18:27:46.299Z,43.46
2023-03-19T18:30:48.025Z,43.51
2023-03-19T18:33:54.687Z,43.68
2023-03-19T18:36:57.220Z,43.68
2023-03-19T18:39:58.825Z,43.61
2023-03-19T18:43:01.269Z,43.79
2023-03-19T18:46:03.053Z,43.95
2023-03-19T18:49:15.940Z,43.99
2023-03-19T18:52:19.577Z,44.03
2023-03-19T18:55:27.341Z,44.02
2023-03-19T18:58:29.387Z,44.16
2023-03-19T19:01:31.225Z,44.26
2023-03-19T19:04:33.041Z,44.47
2023-03-19T19:07:34.886Z,44.50
2023-03-19T19:10:37.487Z,44.67
2023-03-19T19:13:55.156Z,46.10
2023-03-19T19:16:57.442Z,45.30
2023-03-19T19:20:26.824Z,45.10
2023-03-19T19:23:30.678Z,45.21
2023-03-19T19:26:39.352Z,45.18
2023-03-19T19:29:41.483Z,45.30
2023-03-19T19:32:57.745Z,45.32
2023-03-19T19:36:00.566Z,45.39
2023-03-19T19:39:02.488Z,45.46
2023-03-19T19:42:41.079Z,45.61
2023-03-19T19:45:46.109Z,45.70
2023-03-19T19:48:47.857Z,45.74
2023-03-19T19:51:50.374Z,45.84
2023-03-19T19:54:52.147Z,45.97
2023-03-19T19:57:56.343Z,46.03
2023-03-19T20:01:03.707Z,46.13
2023-03-19T20:04:06.247Z,46.15
2023-03-19T20:07:08.057Z,46.26
2023-03-19T20:10:10.713Z,46.46
2023-03-19T20:13:25.668Z,46.47
2023-03-19T20:16:27.518Z,46.81
2023-03-19T20:19:36.223Z,46.86
2023-03-19T20:22:42.448Z,46.95
2023-03-19T20:37:56.035Z,47.29
2023-03-19T20:41:01.370Z,47.38
2023-03-19T20:44:06.118Z,47.40
2023-03-19T20:47:21.017Z,47.38
2023-03-19T20:50:25.975Z,47.30
2023-03-19T20:53:28.352Z,47.30
2023-03-19T20:56:30.314Z,47.16
2023-03-19T20:59:32.049Z,47.05
2023-03-19T21:07:28.181Z,46.62
2023-03-19T21:10:41.720Z,46.43
2023-03-19T21:13:45.702Z,46.44
2023-03-19T21:16:53.975Z,46.21
2023-03-19T21:20:02.741Z,46.10
2023-03-19T21:23:19.763Z,45.97
2023-03-19T21:29:41.910Z,45.77
2023-03-19T21:32:43.791Z,45.68
2023-03-19T21:35:45.856Z,45.50
2023-03-19T21:38:48.534Z,45.35
2023-03-19T21:41:50.362Z,45.24
2023-03-19T21:44:57.945Z,45.03
2023-03-19T21:48:16.026Z,44.98
2023-03-19T21:51:17.786Z,44.89
2023-03-19T21:54:19.549Z,44.75
2023-03-19T21:57:21.348Z,44.71
2023-03-19T22:00:23.795Z,44.63
2023-03-19T22:03:26.953Z,44.63
2023-03-19T22:06:29.438Z,44.44
2023-03-19T22:09:31.290Z,44.43
2023-03-19T22:12:36.845Z,44.53
2023-03-19T22:15:38.638Z,44.35
2023-03-19T22:18:40.859Z,44.32
2023-03-19T22:21:42.733Z,44.34
2023-03-19T22:24:44.505Z,44.23
2023-03-19T22:27:48.391Z,44.20
2023-03-19T22:30:50.201Z,44.21
2023-03-19T22:33:52.065Z,44.16
2023-03-19T22:36:53.963Z,44.13
2023-03-19T22:39:55.928Z,43.94
2023-03-19T22:42:57.927Z,44.01
2023-03-19T22:46:08.625Z,43.98
2023-03-19T22:49:14.834Z,43.95
2023-03-19T22:52:17.079Z,44.04
2023-03-19T22:55:18.848Z,44.11
2023-03-19T22:58:22.375Z,43.98
2023-03-19T23:01:25.215Z,44.15
2023-03-19T23:04:31.089Z,44.20
2023-03-19T23:07:32.961Z,44.23
2023-03-19T23:10:35.435Z,44.10
2023-03-19T23:13:37.265Z,44.13
2023-03-19T23:16:42.660Z,44.28
2023-03-19T23:19:44.420Z,44.24
2023-03-19T23:22:47.011Z,44.19
2023-03-19T23:25:49.142Z,44.27
2023-03-19T23:28:51.013Z,44.30
2023-03-19T23:31:52.756Z,44.39
2023-03-19T23:35:00.584Z,44.33
2023-03-19T23:38:03.520Z,44.34
2023-03-19T23:41:05.454Z,44.47
2023-03-19T23:44:13.109Z,44.45
2023-03-19T23:47:15.710Z,44.56
2023-03-19T23:50:17.613Z,44.43
2023-03-19T23:53:25.538Z,44.60
2023-03-19T23:56:27.584Z,44.54
2023-03-19T23:59:33.821Z,44.58
